Latest Weather Observations for Sydney Airport

IDN60901

Issued at 10:01 pm EST Tuesday 26 July 2016 (issued every 10 minutes, with the page automatically refreshed every 10 minutes)

About weather observations | Map of Sydney area stations | Latest observations for Sydney area | Other Formats
Station Details ID: 066037 Name: SYDNEY AIRPORT AMO Lat: -33.95 Lon: 151.17 Height: 6.0 m
Data from the previous 72 hours. | See also: Recent months at Sydney Airport
Date/Time
EST
Temp
°C
App
Temp
°C
Dew
Point
°C
Rel
Hum
%
Delta-T
°C
Wind Press
QNH
hPa
Press
MSL
hPa
Rain since
9am
mm
Dir  Spd
km/h
Gust
km/h
Spd
kts
Gust
kts
26/09:30pm 12.3 8.9 2.1 49 4.4 W 9 13 5 7 1014.6 1014.6 0.0
26/09:00pm 12.4 8.6 3.7 55 3.9 WSW 13 17 7 9 1014.7 1014.7 0.0
26/08:30pm 13.3 8.4 2.0 46 4.9 W 17 24 9 13 1014.6 1014.6 0.0
26/08:00pm 13.5 7.6 1.4 43 5.2 W 22 28 12 15 1014.5 1014.5 0.0
26/07:30pm 13.8 7.1 1.5 43 5.3 W 26 32 14 17 1014.4 1014.4 0.0
26/07:00pm 14.6 7.8 1.1 40 5.8 W 26 32 14 17 1014.1 1014.1 0.0
26/06:30pm 14.6 8.2 1.1 40 5.8 WSW 24 28 13 15 1013.7 1013.7 0.0
26/06:00pm 15.9 9.0 0.2 34 6.7 W 26 37 14 20 1013.3 1013.3 0.0
26/05:30pm 16.3 8.0 -0.1 32 7.0 WNW 33 46 18 25 1013.2 1013.2 0.0
26/05:00pm 17.3 11.5 -0.1 30 7.5 WNW 20 37 11 20 1012.9 1012.9 0.0
26/04:30pm 18.1 14.9 2.9 36 7.0 NE 9 17 5 9 1012.6 1012.6 0.0
26/04:00pm 17.1 12.8 5.2 45 5.7 E 17 20 9 11 1012.5 1012.5 0.0
26/03:30pm 17.1 12.5 5.8 47 5.5 E 19 24 10 13 1012.7 1012.7 0.0
26/03:00pm 17.1 12.1 4.4 43 6.0 E 20 26 11 14 1012.9 1012.9 0.0
26/02:30pm 17.1 12.6 4.4 43 6.0 E 17 24 9 13 1012.8 1012.8 0.0
26/02:00pm 16.9 11.9 3.8 41 6.1 E 19 26 10 14 1013.0 1013.0 0.0
26/01:30pm 17.0 11.9 3.3 40 6.3 E 19 26 10 14 1013.2 1013.2 0.0
26/01:00pm 17.0 12.1 2.1 36 6.7 E 17 24 9 13 1013.4 1013.4 0.0
26/12:30pm 16.8 12.9 3.3 40 6.2 SE 13 17 7 9 1013.8 1013.8 0.0
26/12:00pm 16.8 13.2 3.0 39 6.3 SSE 11 15 6 8 1014.3 1014.3 0.0
26/11:30am 15.9 12.8 5.4 49 5.0 SSE 11 15 6 8 1014.6 1014.6 0.0
26/11:00am 15.7 13.0 5.4 50 4.9 SSW 9 13 5 7 1014.9 1014.9 0.0
26/10:30am 16.6 13.3 2.7 39 6.3 W 9 11 5 6 1015.0 1015.0 0.0
26/10:00am 17.5 14.2 2.6 37 6.8 NNW 9 13 5 7 1015.2 1015.2 0.0
26/09:30am 16.0 11.9 2.4 40 6.1 N 13 19 7 10 1014.9 1014.9 0.0
26/09:00am 15.8 11.7 2.4 40 6.0 N 13 17 7 9 1014.6 1014.6 0.0
26/08:30am 14.7 10.3 2.6 44 5.4 N 15 17 8 9 1014.4 1014.4 0.0
26/08:00am 13.1 9.0 2.3 48 4.7 N 13 17 7 9 1014.2 1014.2 0.0
26/07:30am 11.8 7.7 2.3 52 4.1 N 13 17 7 9 1014.0 1014.0 0.0
26/07:00am 11.9 7.3 1.8 50 4.3 N 15 19 8 10 1013.5 1013.5 0.0
26/06:30am 11.6 6.7 1.7 50 4.2 NNE 17 19 9 10 1012.9 1012.9 0.0
26/06:00am 10.9 6.7 1.6 52 3.9 N 13 17 7 9 1012.7 1012.7 0.0
26/05:30am 10.5 5.5 1.4 53 3.8 N 17 20 9 11 1012.5 1012.5 0.0
26/05:00am 10.3 4.9 1.4 54 3.7 N 19 22 10 12 1012.0 1012.0 0.0
26/04:30am 10.2 5.2 1.3 54 3.7 NNE 17 19 9 10 1011.8 1011.8 0.0
26/04:00am 10.1 5.9 1.5 55 3.6 NNE 13 15 7 8 1011.9 1011.9 0.0
26/03:30am 10.5 5.9 1.4 53 3.8 N 15 17 8 9 1012.0 1012.0 0.0
26/03:00am 10.2 5.9 1.0 53 3.8 N 13 17 7 9 1012.4 1012.4 0.0
26/02:30am 10.3 5.6 1.1 53 3.8 N 15 17 8 9 1012.5 1012.5 0.0
26/02:00am 11.0 6.8 1.5 52 4.0 NNE 13 15 7 8 1012.6 1012.6 0.0
26/01:30am 10.6 5.9 1.2 52 3.9 NNE 15 17 8 9 1012.5 1012.5 0.0
26/01:00am 10.5 6.3 1.7 54 3.7 NE 13 17 7 9 1012.7 1012.7 0.0
26/12:30am 11.1 6.8 1.0 50 4.2 NNE 13 15 7 8 1012.5 1012.5 0.0
26/12:00am 11.2 6.2 1.1 50 4.2 N 17 20 9 11 1012.8 1012.8 0.0
 
Date/Time
EST
Temp
°C
App
Temp
°C
Dew
Point
°C
Rel
Hum
%
Delta-T
°C
Wind Press
QNH
hPa
Press
MSL
hPa
Rain since
9am
mm
Dir  Spd
km/h
Gust
km/h
Spd
kts
Gust
kts
25/11:30pm 11.9 6.9 1.2 48 4.5 NNW 17 26 9 14 1013.0 1013.0 0.0
25/11:00pm 11.7 6.8 1.9 51 4.2 NW 17 26 9 14 1013.2 1013.2 0.0
25/10:30pm 12.0 6.4 1.4 48 4.5 NW 20 28 11 15 1013.2 1013.2 0.0
25/10:00pm 12.4 6.9 1.6 47 4.6 NNW 20 28 11 15 1013.1 1013.1 0.0
25/09:30pm 12.6 7.0 1.3 46 4.8 NNW 20 32 11 17 1013.1 1013.1 0.0
25/09:00pm 12.6 7.3 1.6 47 4.7 NNW 19 24 10 13 1013.2 1013.2 0.0
25/08:30pm 13.0 7.1 1.6 46 4.9 NNW 22 30 12 16 1013.0 1013.0 0.0
25/08:00pm 13.7 6.5 0.7 41 5.5 NW 28 33 15 18 1012.8 1012.8 0.0
25/07:30pm 13.8 5.8 0.2 39 5.7 NW 32 41 17 22 1012.9 1012.9 0.0
25/07:00pm 14.2 6.6 0.5 39 5.8 NW 30 37 16 20 1012.8 1012.8 0.0
25/06:30pm 14.3 6.3 0.7 39 5.8 WNW 32 41 17 22 1012.6 1012.6 0.0
25/06:00pm 14.6 6.3 -0.2 36 6.2 WNW 33 44 18 24 1012.2 1012.2 0.0
25/05:30pm 14.9 7.5 -0.7 34 6.5 WNW 28 37 15 20 1011.7 1011.7 0.0
25/05:06pm 15.2 6.9 -0.6 34 6.6 WNW 33 52 18 28 1011.7 1011.7 0.0
25/05:00pm 15.5 6.8 -0.8 33 6.8 WNW 35 52 19 28 1011.6 1011.6 0.0
25/04:30pm 16.6 8.4 -0.7 31 7.3 WNW 32 41 17 22 1011.6 1011.6 0.0
25/04:00pm 16.9 8.0 -1.6 28 7.7 WNW 35 50 19 27 1011.4 1011.4 0.0
25/03:30pm 17.3 9.7 -2.0 26 8.0 WNW 28 39 15 21 1011.3 1011.3 0.0
25/03:00pm 17.5 10.6 -2.5 25 8.2 WNW 24 32 13 17 1011.5 1011.5 0.0
25/02:30pm 18.1 9.6 -2.9 24 8.6 WNW 32 43 17 23 1011.2 1011.2 0.0
25/02:19pm 18.2 10.6 -2.3 24 8.5 W 28 46 15 25 1011.2 1011.2 0.0
25/02:00pm 18.7 11.4 -2.9 23 8.9 WNW 26 39 14 21 1011.4 1011.4 0.0
25/01:30pm 18.0 10.7 -2.7 24 8.5 WNW 26 37 14 20 1011.5 1011.5 0.0
25/01:00pm 17.8 11.3 -2.3 25 8.3 W 22 32 12 17 1011.5 1011.5 0.0
25/12:30pm 17.2 9.3 -1.4 28 7.8 W 30 44 16 24 1011.7 1011.7 0.0
25/12:00pm 16.5 8.8 -0.1 32 7.1 WSW 30 37 16 20 1011.9 1011.9 0.0
25/11:44am 16.5 8.8 -0.1 32 7.1 W 30 52 16 28 1012.3 1012.3 0.0
25/11:30am 15.9 7.7 -0.8 32 7.0 W 32 46 17 25 1012.7 1012.7 0.0
25/11:00am 15.8 8.1 0.1 34 6.7 W 30 39 16 21 1012.7 1012.7 0.0
25/10:30am 15.6 7.4 0.1 34 6.6 WNW 33 44 18 24 1012.5 1012.5 0.0
25/10:00am 15.3 8.9 1.0 38 6.2 NW 24 37 13 20 1012.5 1012.5 0.0
25/09:30am 14.1 5.9 0.4 39 5.8 NW 33 39 18 21 1012.5 1012.5 0.0
25/09:00am 13.8 6.6 0.6 40 5.6 NW 28 35 15 19 1012.4 1012.4 0.0
25/08:30am 13.0 7.3 0.6 42 5.2 NNW 20 28 11 15 1012.4 1012.4 0.0
25/08:00am 12.1 7.8 0.9 46 4.7 N 13 17 7 9 1012.4 1012.4 0.0
25/07:30am 10.8 6.5 1.2 51 4.0 N 13 17 7 9 1012.4 1012.4 0.0
25/07:00am 10.2 5.1 1.0 53 3.8 N 17 19 9 10 1011.9 1011.9 0.0
25/06:30am 10.1 5.1 1.5 55 3.6 NNW 17 20 9 11 1011.3 1011.3 0.0
25/06:00am 8.6 4.5 2.4 65 2.6 N 13 17 7 9 1011.3 1011.3 0.0
25/05:30am 8.2 3.9 3.0 70 2.2 NNW 15 17 8 9 1011.3 1011.3 0.0
25/05:00am 8.0 3.3 3.0 71 2.1 NW 17 19 9 10 1010.9 1010.9 0.0
25/04:30am 7.7 2.4 3.0 72 2.0 NW 20 26 11 14 1010.7 1010.7 0.0
25/04:00am 7.8 2.8 3.6 75 1.8 WNW 19 26 10 14 1010.5 1010.5 0.0
25/03:30am 8.4 4.1 3.5 71 2.1 NW 15 19 8 10 1010.1 1010.1 0.0
25/03:00am 9.6 4.9 3.1 64 2.8 NNW 17 22 9 12 1010.1 1010.1 0.0
25/02:30am 9.2 4.1 2.9 65 2.7 N 19 22 10 12 1010.2 1010.2 0.0
25/02:00am 9.6 4.8 2.5 61 3.0 NNW 17 24 9 13 1010.5 1010.5 0.0
25/01:30am 9.9 4.4 2.1 58 3.3 NNW 20 26 11 14 1011.1 1011.1 0.0
25/01:00am 9.6 4.1 2.0 59 3.2 NNW 20 26 11 14 1011.3 1011.3 0.0
25/12:30am 9.1 3.8 1.6 59 3.1 N 19 22 10 12 1011.3 1011.3 0.0
25/12:00am 9.2 3.8 1.1 57 3.3 N 19 22 10 12 1011.6 1011.6 0.0
 
Date/Time
EST
Temp
°C
App
Temp
°C
Dew
Point
°C
Rel
Hum
%
Delta-T
°C
Wind Press
QNH
hPa
Press
MSL
hPa
Rain since
9am
mm
Dir  Spd
km/h
Gust
km/h
Spd
kts
Gust
kts
24/11:30pm 9.1 3.7 1.3 58 3.2 N 19 22 10 12 1011.9 1011.9 0.0
24/11:00pm 9.3 3.7 1.0 56 3.4 N 20 22 11 12 1012.2 1012.2 0.0
24/10:30pm 9.5 4.0 0.3 52 3.7 N 19 22 10 12 1012.4 1012.4 0.0
24/10:00pm 10.3 3.8 0.2 49 4.1 N 24 30 13 16 1012.6 1012.6 0.0
24/09:30pm 10.7 4.5 -0.2 47 4.4 NNW 22 32 12 17 1012.7 1012.7 0.0
24/09:00pm 10.5 4.7 -0.2 47 4.3 N 20 26 11 14 1012.5 1012.5 0.0
24/08:30pm 11.0 4.4 -0.4 45 4.6 N 24 28 13 15 1012.8 1012.8 0.0
24/08:00pm 10.9 5.3 -0.3 46 4.5 N 19 22 10 12 1013.2 1013.2 0.0
24/07:30pm 11.4 5.8 -0.2 44 4.7 N 19 24 10 13 1013.1 1013.1 0.0
24/07:00pm 11.5 5.7 0.0 45 4.7 N 20 24 11 13 1013.1 1013.1 0.0
24/06:30pm 11.9 6.1 -0.4 42 5.0 N 20 22 11 12 1012.9 1012.9 0.0
24/06:00pm 12.6 7.2 -1.0 39 5.5 NNW 17 22 9 12 1012.5 1012.5 0.0
24/05:30pm 13.0 7.1 -1.1 37 5.7 NNW 20 28 11 15 1012.2 1012.2 0.0
24/05:00pm 13.7 8.3 -1.7 34 6.2 N 17 20 9 11 1011.7 1011.7 0.0
24/04:30pm 14.7 9.6 -2.3 31 6.8 WNW 15 24 8 13 1011.6 1011.6 0.0
24/04:00pm 14.4 8.0 -1.6 33 6.5 W 22 26 12 14 1011.9 1011.9 0.0
24/03:30pm 14.0 7.0 -3.2 30 6.7 WNW 24 30 13 16 1011.9 1011.9 0.0
24/03:00pm 15.0 8.8 -2.9 29 7.1 NNW 20 28 11 15 1012.0 1012.0 0.0
24/02:30pm 14.8 8.7 -2.1 31 6.8 NW 20 30 11 16 1012.1 1012.1 0.0
24/02:00pm 13.3 6.1 -2.1 34 6.1 WNW 26 33 14 18 1012.6 1012.6 0.0
24/01:30pm 12.3 5.4 -2.3 36 5.7 WNW 24 32 13 17 1012.8 1012.8 0.0
24/01:00pm 12.3 4.6 -2.7 35 5.8 WNW 28 37 15 20 1013.5 1013.5 0.0
24/12:30pm 12.2 4.2 -2.5 36 5.7 WNW 30 41 16 22 1013.6 1013.6 0.0
24/12:00pm 11.6 4.0 -2.4 37 5.4 WNW 28 35 15 19 1014.6 1014.6 0.0
24/11:30am 11.1 3.8 -2.5 38 5.2 WNW 26 33 14 18 1015.6 1015.6 0.0
24/11:00am 10.8 3.2 -1.8 41 4.9 WNW 28 37 15 20 1015.6 1015.6 0.0
24/10:30am 10.3 3.8 -2.3 41 4.8 WNW 22 33 12 18 1015.8 1015.8 0.0
24/10:00am 9.7 2.9 -1.8 44 4.4 WNW 24 35 13 19 1016.0 1016.0 0.0
24/09:30am 9.5 3.1 -1.4 46 4.2 WNW 22 28 12 15 1016.2 1016.2 0.0
24/09:00am 8.8 2.9 -1.0 50 3.8 WNW 20 28 11 15 1015.8 1015.8 0.0
24/08:30am 7.8 0.7 -1.5 52 3.5 WNW 26 33 14 18 1015.6 1015.6 0.0
24/08:00am 7.4 0.6 -1.7 52 3.4 WNW 24 32 13 17 1015.1 1015.1 0.0
24/07:30am 7.2 0.8 -2.0 52 3.4 WNW 22 26 12 14 1015.1 1015.1 0.0
24/07:00am 7.1 1.1 -1.8 53 3.3 WNW 20 28 11 15 1014.8 1014.8 0.0
24/06:30am 7.4 0.5 -2.4 50 3.6 WNW 24 30 13 16 1014.8 1014.8 0.0
24/06:00am 7.6 1.0 -3.2 46 3.9 WNW 22 28 12 15 1015.1 1015.1 0.0
24/05:30am 7.6 1.4 -2.8 47 3.8 NW 20 26 11 14 1014.7 1014.7 0.0
24/05:00am 7.4 1.4 -3.1 47 3.8 NW 19 24 10 13 1014.5 1014.5 0.0
24/04:30am 7.6 1.1 -2.8 47 3.8 WNW 22 28 12 15 1014.3 1014.3 0.0
24/04:00am 7.9 0.9 -3.5 44 4.1 WNW 24 30 13 16 1014.4 1014.4 0.0
24/03:30am 8.3 1.0 -3.2 44 4.2 WNW 26 32 14 17 1014.4 1014.4 0.0
24/03:00am 8.6 1.2 -3.9 41 4.5 W 26 35 14 19 1014.2 1014.2 0.0
24/02:30am 8.8 0.9 -4.4 39 4.7 WNW 28 33 15 18 1014.2 1014.2 0.0
24/02:00am 8.5 1.6 -2.9 44 4.2 W 24 32 13 17 1014.6 1014.6 0.0
24/01:30am 9.2 2.3 -2.5 44 4.4 WSW 24 28 13 15 1014.7 1014.7 0.0
24/01:00am 9.5 2.0 -1.4 46 4.2 SW 28 35 15 19 1014.5 1014.5 0.0
24/12:30am 9.4 2.2 -2.2 44 4.4 SW 26 32 14 17 1014.4 1014.4 0.0
24/12:00am 9.9 3.4 0.5 52 3.8 SW 24 30 13 16 1014.0 1014.0 0.0
 
Date/Time
EST
Temp
°C
App
Temp
°C
Dew
Point
°C
Rel
Hum
%
Delta-T
°C
Wind Press
QNH
hPa
Press
MSL
hPa
Rain since
9am
mm
Dir  Spd
km/h
Gust
km/h
Spd
kts
Gust
kts
23/11:30pm 10.7 4.5 -0.6 45 4.5 SW 22 28 12 15 1013.7 1013.7 0.0
23/11:00pm 11.1 3.4 -3.2 36 5.4 WSW 28 37 15 20 1013.1 1013.1 0.0
23/10:30pm 10.9 4.6 -0.9 44 4.7 SW 22 32 12 17 1013.1 1013.1 0.0

Latest Capital City Observations: Canberra | Sydney | Melbourne | Brisbane | Adelaide | Perth | Hobart | Darwin

Other Formats:

Comma delimited format used in spreadsheet applications
http://www.bom.gov.au/fwo/IDN60901/IDN60901.94767.axf

JavaScript Object Notation format (JSON) in row-major order
http://www.bom.gov.au/fwo/IDN60901/IDN60901.94767.json